Time;durP1;ratioP1;P1;durP2;ratioP2;P2;SDS_P1;SDS_P2;PMS_P1;PMS_P2;Temp;Humidity;BMP_temperature;BMP_pressure;BME280_temperature;BME280_humidity;BME280_pressure;Samples;Min_cycle;Max_cycle;Signal;HPM_P1;HPM_P2
2021/08/12 00:00:27;;;;;;;3.67;1.08;;;;;;;15.18;62.43;100905.06;5073286;28;20048;-41
2021/08/12 00:03:14;;;;;;;3.47;0.63;;;;;;;15.19;62.47;100900.28;5075047;28;20043;-42
2021/08/12 00:06:02;;;;;;;4.53;1.08;;;;;;;15.07;62.98;100898.47;5072732;28;20051;-42
2021/08/12 00:08:49;;;;;;;8.48;1.10;;;;;;;14.97;62.80;100893.53;5058250;28;20048;-41
2021/08/12 00:11:37;;;;;;;8.68;1.20;;;;;;;14.94;62.96;100894.25;5074666;28;20095;-43
2021/08/12 00:14:24;;;;;;;5.95;1.10;;;;;;;14.89;62.86;100889.00;5075182;28;20112;-45
2021/08/12 00:17:11;;;;;;;3.50;0.88;;;;;;;14.82;63.31;100882.50;5072844;28;20108;-41
2021/08/12 00:19:58;;;;;;;2.47;0.70;;;;;;;14.76;63.13;100884.78;5071620;28;20044;-41
2021/08/12 00:22:45;;;;;;;6.30;1.23;;;;;;;14.76;63.23;100882.00;5071662;28;20048;-50
2021/08/12 00:25:32;;;;;;;4.25;1.02;;;;;;;14.69;63.45;100881.88;5071972;28;20051;-42
2021/08/12 00:28:20;;;;;;;4.93;0.85;;;;;;;14.71;63.45;100884.28;5073046;28;20160;-41
2021/08/12 00:31:07;;;;;;;2.85;1.00;;;;;;;14.68;63.42;100885.00;5074404;28;20058;-45
2021/08/12 00:33:54;;;;;;;7.18;1.33;;;;;;;14.61;63.44;100886.47;5056082;28;20193;-44
2021/08/12 00:36:41;;;;;;;5.60;1.20;;;;;;;14.64;63.44;100879.34;5072177;28;20056;-46
2021/08/12 00:39:28;;;;;;;5.35;0.88;;;;;;;14.66;63.48;100882.59;5073583;28;20063;-41
2021/08/12 00:42:15;;;;;;;4.60;1.15;;;;;;;14.68;63.54;100883.03;5073047;28;20044;-41
2021/08/12 00:45:03;;;;;;;3.47;1.10;;;;;;;14.64;63.52;100880.16;5071872;28;20421;-41
2021/08/12 00:47:50;;;;;;;5.60;1.70;;;;;;;14.60;63.55;100870.13;5072581;28;20601;-44
2021/08/12 00:50:42;;;;;;;4.75;1.20;;;;;;;14.56;63.90;100870.06;5073949;28;20055;-40
2021/08/12 00:53:29;;;;;;;4.75;0.70;;;;;;;14.57;63.58;100870.88;5073461;28;20555;-46
2021/08/12 00:56:17;;;;;;;4.68;1.23;;;;;;;14.57;63.56;100877.25;5056745;28;20642;-44
2021/08/12 00:59:04;;;;;;;4.53;0.77;;;;;;;14.50;63.96;100865.16;5072714;28;20048;-46
2021/08/12 01:01:51;;;;;;;2.25;0.90;;;;;;;14.52;63.91;100868.38;5072594;28;20059;-40
2021/08/12 01:04:45;;;;;;;4.82;1.02;;;;;;;14.53;63.85;100868.00;5072450;28;20186;-47
2021/08/12 01:07:37;;;;;;;6.25;1.02;;;;;;;14.58;63.90;100866.91;5073682;28;20052;-42
2021/08/12 01:10:43;;;;;;;;;;;;;;;14.52;63.66;100860.03;5073192;28;20144;-44
2021/08/12 01:13:45;;;;;;;3.60;0.80;;;;;;;14.42;64.11;100869.00;5058682;28;19931;-40
2021/08/12 01:16:42;;;;;;;5.18;1.30;;;;;;;14.47;64.02;100860.34;5072648;28;20055;-47
2021/08/12 01:19:47;;;;;;;2.88;0.85;;;;;;;14.53;63.59;100847.72;5072479;28;20048;-48
2021/08/12 01:22:38;;;;;;;2.67;1.17;;;;;;;14.55;63.68;100843.38;5072822;28;20051;-47
2021/08/12 01:25:28;;;;;;;5.63;1.17;;;;;;;14.58;63.19;100847.41;5072179;28;20406;-41
2021/08/12 01:28:20;;;;;;;3.10;0.82;;;;;;;14.59;63.12;100846.22;5070846;28;20374;-40
2021/08/12 01:31:18;;;;;;;4.47;0.93;;;;;;;14.56;63.13;100841.41;5072182;28;20135;-43
2021/08/12 01:34:25;;;;;;;2.40;0.70;;;;;;;14.50;63.29;100843.69;5072981;28;20556;-44
2021/08/12 01:37:14;;;;;;;3.70;0.93;;;;;;;14.50;63.07;100848.47;5073232;28;20055;-41
2021/08/12 01:40:04;;;;;;;1.58;0.75;;;;;;;14.54;62.94;100835.38;5071362;28;20531;-45
2021/08/12 01:42:55;;;;;;;4.43;1.00;;;;;;;14.49;63.00;100830.94;5072557;28;20862;-41
2021/08/12 01:45:54;;;;;;;3.20;0.93;;;;;;;14.43;63.49;100828.81;5072274;28;20056;-44
2021/08/12 01:48:42;;;;;;;4.80;0.90;;;;;;;14.41;63.23;100834.75;5073032;28;20044;-41
2021/08/12 01:51:31;;;;;;;4.75;0.70;;;;;;;14.41;63.20;100831.97;5070768;28;20048;-41
2021/08/12 01:54:20;;;;;;;4.55;0.93;;;;;;;14.37;63.20;100824.72;5072368;28;20044;-43
2021/08/12 01:57:08;;;;;;;5.97;0.90;;;;;;;14.34;63.25;100828.25;5072364;28;20052;-45
2021/08/12 01:59:55;;;;;;;6.03;0.77;;;;;;;14.26;63.43;100823.69;5071512;28;20560;-41
2021/08/12 02:02:45;;;;;;;3.60;1.00;;;;;;;14.18;63.72;100827.50;5071670;28;20416;-43
2021/08/12 02:05:34;;;;;;;4.65;1.08;;;;;;;14.19;63.50;100826.34;5071046;28;20102;-41
2021/08/12 02:08:22;;;;;;;5.38;0.88;;;;;;;14.16;63.63;100816.75;5069570;28;20479;-44
2021/08/12 02:11:09;;;;;;;3.78;0.73;;;;;;;14.14;63.81;100821.84;5072115;28;20417;-43
2021/08/12 02:13:56;;;;;;;3.83;0.70;;;;;;;14.09;63.82;100826.91;5070664;28;20079;-50
2021/08/12 02:16:43;;;;;;;3.53;0.80;;;;;;;14.04;64.12;100826.03;5069824;28;20089;-44
2021/08/12 02:19:31;;;;;;;1.95;0.80;;;;;;;13.99;64.22;100831.91;5070569;28;22084;-46
2021/08/12 02:22:21;;;;;;;4.03;0.70;;;;;;;13.94;64.40;100821.06;5075481;28;20044;-41
2021/08/12 02:25:16;;;;;;;9.00;1.42;;;;;;;13.91;64.88;100830.13;5074145;28;21204;-45
2021/08/12 02:28:06;;;;;;;4.57;0.77;;;;;;;13.89;64.82;100824.13;5074379;28;20052;-41
2021/08/12 02:30:55;;;;;;;18.27;2.95;;;;;;;13.92;64.91;100828.97;5076777;28;20417;-47
2021/08/12 02:33:45;;;;;;;5.30;0.85;;;;;;;13.89;64.77;100826.91;5077711;28;20679;-41
2021/08/12 02:36:32;;;;;;;5.10;0.77;;;;;;;13.86;64.93;100830.44;5076358;28;20327;-41
2021/08/12 02:39:21;;;;;;;7.07;1.27;;;;;;;13.87;64.95;100823.66;5077025;28;20048;-42
2021/08/12 02:42:09;;;;;;;4.93;0.93;;;;;;;13.88;65.14;100830.06;5076909;28;20036;-46
2021/08/12 02:44:58;;;;;;;6.80;1.10;;;;;;;13.88;65.25;100830.84;5076874;28;20489;-43
2021/08/12 02:47:45;;;;;;;6.57;2.83;;;;;;;13.87;65.46;100820.09;5076606;28;20109;-43
2021/08/12 02:50:33;;;;;;;5.70;1.20;;;;;;;13.88;65.51;100816.13;5061496;28;20048;-41
2021/08/12 02:53:20;;;;;;;6.85;1.15;;;;;;;13.87;65.61;100820.09;5078049;28;20548;-40
2021/08/12 02:56:12;;;;;;;12.30;1.65;;;;;;;13.86;65.65;100815.69;5076470;28;20078;-41
2021/08/12 02:58:59;;;;;;;11.95;1.80;;;;;;;13.86;65.82;100810.94;5075886;28;20474;-42
2021/08/12 03:01:47;;;;;;;6.07;1.35;;;;;;;13.89;65.61;100818.56;5076051;28;20056;-46
2021/08/12 03:04:34;;;;;;;3.47;1.02;;;;;;;13.90;65.82;100813.78;5076448;28;20044;-41
2021/08/12 03:07:23;;;;;;;4.28;0.80;;;;;;;13.89;66.05;100806.63;5074995;28;20047;-43
2021/08/12 03:10:12;;;;;;;7.40;1.30;;;;;;;13.90;66.04;100811.00;5075991;28;20510;-40
2021/08/12 03:13:00;;;;;;;4.13;1.13;;;;;;;13.84;66.23;100804.13;5075699;28;20047;-46
2021/08/12 03:15:48;;;;;;;6.07;1.13;;;;;;;13.86;66.22;100794.25;5075496;28;20389;-42
2021/08/12 03:18:36;;;;;;;3.72;0.65;;;;;;;13.87;66.26;100786.72;5075645;28;20052;-41
2021/08/12 03:21:23;;;;;;;5.93;1.42;;;;;;;13.87;66.49;100783.94;5076215;28;20036;-41
2021/08/12 03:24:10;;;;;;;6.38;1.25;;;;;;;13.89;66.48;100785.16;5075450;28;20474;-40
2021/08/12 03:26:57;;;;;;;8.23;1.30;;;;;;;13.90;66.39;100772.84;5076773;28;20747;-44
2021/08/12 03:29:46;;;;;;;7.97;1.00;;;;;;;13.91;66.66;100766.13;5075073;28;20040;-43
2021/08/12 03:32:33;;;;;;;6.82;1.33;;;;;;;13.93;66.70;100777.69;5076221;28;20052;-42
2021/08/12 03:35:20;;;;;;;5.88;1.42;;;;;;;13.91;66.63;100782.81;5072141;28;20700;-43
2021/08/12 03:38:07;;;;;;;4.53;0.98;;;;;;;13.88;66.90;100777.97;5076357;28;20048;-43
2021/08/12 03:40:54;;;;;;;4.57;1.27;;;;;;;13.91;66.63;100777.25;5074204;28;20660;-41
2021/08/12 03:43:41;;;;;;;6.63;1.50;;;;;;;13.92;66.71;100776.09;5075021;28;20100;-47
2021/08/12 03:46:28;;;;;;;8.32;1.08;;;;;;;13.92;66.93;100778.06;5074170;28;20056;-41
2021/08/12 03:49:16;;;;;;;8.63;1.17;;;;;;;13.89;66.76;100774.03;5075706;28;20044;-42
2021/08/12 03:52:03;;;;;;;8.98;1.10;;;;;;;13.84;66.58;100777.13;5072592;28;20371;-44
2021/08/12 03:54:50;;;;;;;7.05;1.27;;;;;;;13.86;66.51;100769.19;5074786;28;20036;-44
2021/08/12 03:57:42;;;;;;;2.55;0.93;;;;;;;13.85;66.24;100773.16;5074368;28;20101;-43
2021/08/12 04:00:29;;;;;;;6.73;1.47;;;;;;;13.87;66.07;100781.94;5075115;28;20485;-47
2021/08/12 04:03:16;;;;;;;8.38;1.08;;;;;;;13.87;65.84;100770.00;5075491;28;20613;-45
2021/08/12 04:06:03;;;;;;;10.43;1.40;;;;;;;13.89;65.77;100764.88;5075702;28;20040;-42
2021/08/12 04:08:50;;;;;;;13.35;2.35;;;;;;;13.90;65.18;100752.56;5075295;28;20075;-49
2021/08/12 04:11:37;;;;;;;7.05;0.88;;;;;;;13.88;65.18;100744.59;5075848;28;20048;-42
2021/08/12 04:14:25;;;;;;;6.53;1.55;;;;;;;13.90;64.87;100752.56;5075000;28;20060;-45
2021/08/12 04:17:12;;;;;;;8.10;1.38;;;;;;;13.93;64.59;100741.50;5074310;28;20446;-46
2021/08/12 04:19:59;;;;;;;4.05;0.98;;;;;;;13.93;64.42;100752.63;5075013;28;20044;-41
2021/08/12 04:22:46;;;;;;;5.95;1.17;;;;;;;13.95;64.42;100746.72;5074814;28;20055;-45
2021/08/12 04:25:35;;;;;;;5.82;1.30;;;;;;;13.94;64.39;100739.53;5073685;28;20711;-42
2021/08/12 04:28:22;;;;;;;5.40;1.05;;;;;;;13.91;64.59;100749.41;5072789;28;20044;-41
2021/08/12 04:31:09;;;;;;;4.63;0.98;;;;;;;13.88;64.38;100744.59;5074342;28;20453;-42
2021/08/12 04:33:56;;;;;;;4.70;1.08;;;;;;;13.89;64.41;100745.41;5075254;28;20779;-43
2021/08/12 04:36:44;;;;;;;5.63;1.30;;;;;;;13.88;63.93;100743.78;5074780;28;20059;-43
2021/08/12 04:39:31;;;;;;;5.65;1.25;;;;;;;13.84;63.97;100749.28;5075624;28;20056;-41
2021/08/12 04:42:18;;;;;;;7.75;1.42;;;;;;;13.83;63.74;100746.84;5074081;28;20048;-43
2021/08/12 04:45:07;;;;;;;3.63;1.27;;;;;;;13.76;63.72;100741.16;5075313;28;20949;-42
2021/08/12 04:48:04;;;;;;;1.95;0.80;;;;;;;13.71;63.48;100742.25;5073792;28;20073;-41
2021/08/12 04:50:51;;;;;;;5.30;0.60;;;;;;;13.74;63.47;100738.72;5074124;28;20052;-45
2021/08/12 04:53:38;;;;;;;10.43;2.28;;;;;;;13.69;63.30;100735.44;5074064;28;20146;-42
2021/08/12 04:56:25;;;;;;;5.93;0.90;;;;;;;13.69;63.18;100729.88;5073351;28;20047;-41
2021/08/12 04:59:12;;;;;;;6.43;1.15;;;;;;;13.68;63.02;100725.50;5074727;28;20052;-40
2021/08/12 05:02:00;;;;;;;8.75;1.10;;;;;;;13.67;63.12;100730.25;5073047;28;20062;-42
2021/08/12 05:04:47;;;;;;;9.43;1.10;;;;;;;13.67;63.10;100732.22;5072570;28;20052;-43
2021/08/12 05:07:34;;;;;;;7.32;1.20;;;;;;;13.64;63.33;100722.63;5072514;28;20055;-43
2021/08/12 05:10:21;;;;;;;5.35;0.90;;;;;;;13.60;63.46;100732.88;5073826;28;20056;-42
2021/08/12 05:13:08;;;;;;;3.88;0.75;;;;;;;13.61;63.23;100722.56;5073534;28;20047;-40
2021/08/12 05:15:55;;;;;;;2.58;0.85;;;;;;;13.61;63.43;100736.47;5071890;28;20052;-44
2021/08/12 05:18:42;;;;;;;5.85;1.13;;;;;;;13.62;63.71;100736.09;5073507;28;20044;-41
2021/08/12 05:21:30;;;;;;;4.35;0.90;;;;;;;13.67;64.15;100724.69;5071972;28;20052;-45
2021/08/12 05:24:17;;;;;;;10.73;1.30;;;;;;;13.72;64.02;100729.94;5073069;28;20044;-42
2021/08/12 05:27:05;;;;;;;5.10;0.90;;;;;;;13.79;64.22;100734.84;5072738;28;20054;-43
2021/08/12 05:29:51;;;;;;;7.65;1.40;;;;;;;13.83;64.27;100730.97;5072959;28;20047;-41
2021/08/12 05:32:38;;;;;;;10.73;1.27;;;;;;;13.83;64.48;100728.19;5076215;28;20505;-41
2021/08/12 05:35:25;;;;;;;3.45;1.08;;;;;;;13.88;64.47;100719.53;5075585;28;20140;-43
2021/08/12 05:38:14;;;;;;;5.07;0.98;;;;;;;13.92;64.71;100712.06;5073503;28;20048;-45
2021/08/12 05:41:01;;;;;;;4.72;1.48;;;;;;;13.99;64.62;100708.59;5074944;28;20482;-41
2021/08/12 05:43:48;;;;;;;1.90;1.00;;;;;;;14.03;64.47;100713.06;5073397;28;20044;-45
2021/08/12 05:46:35;;;;;;;5.97;0.80;;;;;;;14.02;64.50;100711.47;5075564;28;20904;-49
2021/08/12 05:49:24;;;;;;;5.65;0.75;;;;;;;14.07;64.66;100710.34;5072318;28;20059;-45
2021/08/12 05:52:11;;;;;;;11.32;1.27;;;;;;;14.10;64.71;100694.88;5073888;28;20056;-41
2021/08/12 05:54:59;;;;;;;7.78;1.00;;;;;;;14.13;64.62;100696.94;5076390;28;20036;-41
2021/08/12 05:57:46;;;;;;;5.45;1.85;;;;;;;14.16;64.97;100698.97;5079066;28;20048;-44
2021/08/12 06:00:33;;;;;;;2.78;0.93;;;;;;;14.19;65.00;100690.66;5074536;28;20048;-41
2021/08/12 06:03:21;;;;;;;5.93;1.00;;;;;;;14.23;64.80;100687.97;5077901;28;20048;-45
2021/08/12 06:06:09;;;;;;;9.32;1.30;;;;;;;14.28;64.77;100684.88;5076719;28;20051;-43
2021/08/12 06:08:56;;;;;;;7.40;0.90;;;;;;;14.32;64.78;100699.69;5079701;28;20055;-43
2021/08/12 06:11:43;;;;;;;7.65;1.65;;;;;;;14.32;64.81;100688.56;5076795;28;20044;-40
2021/08/12 06:14:30;;;;;;;5.68;1.15;;;;;;;14.34;64.75;100700.94;5077455;28;20070;-43
2021/08/12 06:17:17;;;;;;;10.00;1.00;;;;;;;14.36;64.53;100693.00;5077987;28;20047;-44
2021/08/12 06:20:05;;;;;;;7.32;0.95;;;;;;;14.39;64.37;100697.03;5077011;28;21472;-44
2021/08/12 06:22:52;;;;;;;6.20;1.05;;;;;;;14.40;64.21;100691.06;5077992;28;20048;-43
2021/08/12 06:25:41;;;;;;;5.35;0.80;;;;;;;14.41;64.12;100689.09;5077450;28;20044;-41
2021/08/12 06:28:28;;;;;;;7.93;1.20;;;;;;;14.44;63.93;100693.94;5076686;28;20066;-41
2021/08/12 06:31:15;;;;;;;9.85;1.20;;;;;;;14.47;64.08;100702.34;5076375;28;20515;-40
2021/08/12 06:34:02;;;;;;;4.13;0.82;;;;;;;14.47;63.82;100709.91;5076834;28;20521;-41
2021/08/12 06:36:49;;;;;;;6.40;1.00;;;;;;;14.46;63.50;100705.50;5075049;28;20047;-45
2021/08/12 06:39:36;;;;;;;2.70;1.00;;;;;;;14.45;63.19;100693.56;5077225;28;20055;-41
2021/08/12 06:42:23;;;;;;;6.28;1.75;;;;;;;14.42;63.39;100691.53;5076718;28;20048;-41
2021/08/12 06:45:12;;;;;;;7.70;1.20;;;;;;;14.41;63.32;100698.25;5075280;28;20052;-41
2021/08/12 06:48:03;;;;;;;7.65;0.90;;;;;;;14.42;63.16;100693.50;5076976;28;20059;-42
2021/08/12 06:50:51;;;;;;;8.77;1.05;;;;;;;14.46;63.22;100697.13;5076357;28;20047;-42
2021/08/12 06:53:38;;;;;;;8.73;1.05;;;;;;;14.51;63.35;100703.22;5077453;28;20056;-41
2021/08/12 06:56:25;;;;;;;6.05;0.80;;;;;;;14.51;63.47;100697.63;5075487;28;20051;-44
2021/08/12 06:59:12;;;;;;;5.05;1.13;;;;;;;14.54;63.12;100704.44;5077207;28;20069;-44
2021/08/12 07:01:59;;;;;;;10.98;1.45;;;;;;;14.60;63.06;100694.59;5075383;28;20559;-41
2021/08/12 07:04:46;;;;;;;12.70;2.35;;;;;;;14.68;62.97;100696.31;5075949;28;20043;-43
2021/08/12 07:07:33;;;;;;;6.78;1.40;;;;;;;14.75;63.00;100692.81;5074747;28;20056;-42
2021/08/12 07:10:20;;;;;;;6.88;1.23;;;;;;;14.83;63.16;100695.34;5076372;28;20100;-41
2021/08/12 07:13:10;;;;;;;10.45;1.67;;;;;;;14.90;63.58;100697.47;5074716;28;20062;-42
2021/08/12 07:15:58;;;;;;;6.97;1.42;;;;;;;15.00;63.81;100685.66;5074339;28;20044;-41
2021/08/12 07:18:45;;;;;;;7.90;1.15;;;;;;;15.16;63.48;100686.28;5076425;28;20087;-47
2021/08/12 07:21:33;;;;;;;9.80;0.98;;;;;;;15.32;63.58;100691.69;5075696;28;20048;-49
2021/08/12 07:24:21;;;;;;;9.02;1.30;;;;;;;15.50;63.70;100693.53;5063747;28;20549;-42
2021/08/12 07:27:12;;;;;;;4.22;1.10;;;;;;;15.67;63.70;100686.59;5070985;28;21315;-45
2021/08/12 07:29:59;;;;;;;4.95;1.23;;;;;;;15.86;63.57;100686.38;5075301;28;20052;-42
2021/08/12 07:32:46;;;;;;;9.65;1.85;;;;;;;15.99;63.70;100693.31;5076017;28;20048;-41
2021/08/12 07:35:34;;;;;;;5.95;1.80;;;;;;;16.14;63.83;100689.47;5074921;28;20056;-47
2021/08/12 07:38:21;;;;;;;6.13;0.95;;;;;;;16.19;64.08;100680.75;5075326;28;20044;-41
2021/08/12 07:41:08;;;;;;;7.35;1.50;;;;;;;16.24;63.60;100677.59;5076334;28;20519;-42
2021/08/12 07:43:55;;;;;;;10.90;2.50;;;;;;;16.26;63.56;100671.63;5074789;28;20086;-42
2021/08/12 07:46:42;;;;;;;9.35;1.15;;;;;;;16.28;63.48;100658.88;5074983;28;20044;-45
2021/08/12 07:49:29;;;;;;;9.05;1.05;;;;;;;16.31;63.59;100657.28;5074651;28;20820;-49
2021/08/12 07:52:16;;;;;;;12.80;2.67;;;;;;;16.32;63.40;100665.31;5073974;28;20048;-45
2021/08/12 07:55:04;;;;;;;9.57;1.50;;;;;;;16.31;63.18;100652.50;5073138;28;20056;-45
2021/08/12 07:57:51;;;;;;;4.72;1.20;;;;;;;16.29;63.09;100652.09;5071863;28;20113;-46
2021/08/12 08:00:38;;;;;;;7.10;2.05;;;;;;;16.29;62.52;100643.72;5069651;28;20481;-42
2021/08/12 08:03:25;;;;;;;11.32;1.73;;;;;;;16.31;62.35;100652.50;5077431;28;20052;-40
2021/08/12 08:06:13;;;;;;;3.83;1.10;;;;;;;16.35;62.00;100636.59;5066729;28;20413;-41
2021/08/12 08:09:00;;;;;;;4.88;1.25;;;;;;;16.43;61.86;100632.69;5072363;28;20044;-43
2021/08/12 08:11:47;;;;;;;4.45;1.00;;;;;;;16.63;62.93;100652.81;5069269;28;20040;-42
2021/08/12 08:14:34;;;;;;;3.92;1.35;;;;;;;16.88;63.56;100647.38;5072412;28;20056;-44
2021/08/12 08:17:22;;;;;;;5.07;0.95;;;;;;;17.19;63.45;100635.56;5072956;28;20052;-43
2021/08/12 08:20:11;;;;;;;6.68;1.10;;;;;;;17.54;63.17;100624.56;5069075;28;20055;-47
2021/08/12 08:23:09;;;;;;;4.70;1.13;;;;;;;18.03;59.87;100625.88;5070511;28;20055;-47
2021/08/12 08:25:56;;;;;;;3.60;0.80;;;;;;;18.61;60.60;100623.47;5073241;28;20600;-44
2021/08/12 08:28:43;;;;;;;6.93;1.27;;;;;;;19.24;58.75;100619.72;5069756;28;20055;-44
2021/08/12 08:31:30;;;;;;;5.45;0.98;;;;;;;19.66;57.42;100601.91;5070387;28;20051;-42
2021/08/12 08:34:17;;;;;;;5.88;1.00;;;;;;;19.71;55.99;100607.06;5071413;28;20536;-42
2021/08/12 08:37:04;;;;;;;7.28;1.13;;;;;;;20.09;55.01;100598.78;5074254;28;22200;-44
2021/08/12 08:39:53;;;;;;;2.60;0.85;;;;;;;20.41;54.19;100596.56;5073775;28;20518;-44
2021/08/12 08:42:41;;;;;;;3.33;0.90;;;;;;;20.26;53.00;100600.69;5073710;28;20462;-44
2021/08/12 08:45:30;;;;;;;6.15;1.23;;;;;;;19.97;52.21;100603.69;5072998;28;20063;-42
2021/08/12 08:48:19;;;;;;;2.97;0.88;;;;;;;19.67;51.74;100595.03;5072811;28;20052;-46
2021/08/12 08:51:08;;;;;;;5.70;1.13;;;;;;;20.12;51.34;100600.78;5075061;28;20055;-42
2021/08/12 08:53:56;;;;;;;7.80;1.42;;;;;;;20.73;50.73;100596.25;5070717;28;20730;-44
2021/08/12 08:56:44;;;;;;;6.90;1.30;;;;;;;21.19;49.81;100591.72;5071205;28;20116;-46
2021/08/12 08:59:34;;;;;;;7.75;1.52;;;;;;;21.04;49.38;100584.63;5057897;28;20056;-46
2021/08/12 09:02:22;;;;;;;6.10;1.38;;;;;;;21.31;48.84;100596.00;5069865;28;20058;-43
2021/08/12 09:05:10;;;;;;;5.05;2.15;;;;;;;21.48;48.63;100580.88;5055315;28;20881;-46
2021/08/12 09:07:59;;;;;;;6.35;1.40;;;;;;;21.22;47.96;100590.88;5068627;28;20078;-45
2021/08/12 09:10:47;;;;;;;6.40;1.33;;;;;;;20.79;48.34;100600.19;5065071;28;20051;-46
2021/08/12 09:13:34;;;;;;;5.53;1.33;;;;;;;20.23;49.36;100587.41;5071568;28;20056;-43
2021/08/12 09:16:33;;;;;;;7.65;1.60;;;;;;;19.87;49.57;100581.28;5068877;28;20047;-42
2021/08/12 09:19:21;;;;;;;4.68;1.27;;;;;;;19.55;50.16;100581.50;5070791;28;20049;-41
2021/08/12 09:22:09;;;;;;;6.03;1.50;;;;;;;19.18;50.58;100570.81;5072508;28;21466;-47
2021/08/12 09:24:56;;;;;;;7.28;1.27;;;;;;;18.90;51.34;100554.09;5072008;28;20048;-47
2021/08/12 09:27:43;;;;;;;10.98;1.75;;;;;;;18.66;51.63;100544.56;5070699;28;20048;-45
2021/08/12 09:30:30;;;;;;;4.10;1.13;;;;;;;18.65;52.04;100554.16;5068378;28;20502;-41
2021/08/12 09:33:18;;;;;;;17.63;3.40;;;;;;;18.72;52.48;100551.34;5071885;28;20048;-42
2021/08/12 09:36:23;;;;;;;17.15;3.13;;;;;;;18.64;52.41;100526.53;5068724;28;20048;-43
2021/08/12 09:39:19;;;;;;;6.95;1.17;;;;;;;18.49;52.69;100536.97;5070096;28;20058;-41
2021/08/12 09:42:06;;;;;;;4.85;1.50;;;;;;;18.47;53.02;100524.53;5068207;28;20048;-45
2021/08/12 09:44:53;;;;;;;6.85;1.70;;;;;;;18.48;53.26;100526.97;5073390;28;20060;-46
2021/08/12 09:47:40;;;;;;;6.55;2.25;;;;;;;18.54;53.36;100505.72;5072265;28;20048;-41
2021/08/12 09:50:35;;;;;;;6.70;2.13;;;;;;;18.56;53.72;100517.34;5072187;28;20667;-40
2021/08/12 09:53:22;;;;;;;8.90;1.52;;;;;;;18.53;53.95;100495.72;5073146;28;20060;-41
2021/08/12 09:56:11;;;;;;;8.27;1.50;;;;;;;18.59;54.25;100504.50;5073215;28;20039;-41
2021/08/12 09:59:07;;;;;;;8.10;3.13;;;;;;;18.69;53.89;100515.69;5071316;28;20048;-41
2021/08/12 10:02:11;;;;;;;10.50;2.72;;;;;;;18.83;53.77;100510.03;5069766;28;20062;-52
2021/08/12 10:05:10;;;;;;;3.10;1.40;;;;;;;18.97;53.36;100509.19;5070636;28;20047;-48
2021/08/12 10:07:57;;;;;;;9.25;1.67;;;;;;;19.13;53.90;100508.69;5068107;28;20052;-44
2021/08/12 10:10:47;;;;;;;5.57;1.38;;;;;;;19.15;53.65;100503.47;5070969;28;20055;-46
2021/08/12 10:13:34;;;;;;;5.28;2.25;;;;;;;19.09;53.92;100496.72;5073889;28;20078;-40
2021/08/12 10:16:21;;;;;;;8.13;2.28;;;;;;;18.97;53.48;100491.53;5072223;28;20040;-42
2021/08/12 10:19:12;;;;;;;5.32;1.58;;;;;;;18.99;53.82;100494.72;5069993;28;20665;-40
2021/08/12 10:21:59;;;;;;;4.72;1.25;;;;;;;19.10;53.69;100495.47;5072933;28;20055;-42
2021/08/12 10:24:48;;;;;;;11.25;1.25;;;;;;;19.21;53.60;100507.47;5071494;28;20067;-40
2021/08/12 10:27:37;;;;;;;3.83;1.02;;;;;;;19.36;52.89;100520.19;5074548;28;20048;-44
2021/08/12 10:30:26;;;;;;;8.77;1.55;;;;;;;19.43;53.01;100509.75;5071669;28;20055;-43
2021/08/12 10:33:14;;;;;;;10.32;1.60;;;;;;;19.47;52.72;100497.69;5072362;28;20143;-40
2021/08/12 10:36:02;;;;;;;2.47;1.23;;;;;;;19.57;52.45;100496.81;5067853;28;20059;-42
2021/08/12 10:38:50;;;;;;;10.35;1.42;;;;;;;19.58;52.22;100493.63;5074161;28;20048;-46
2021/08/12 10:41:40;;;;;;;3.78;1.40;;;;;;;19.55;52.25;100477.59;5071251;28;20044;-42
2021/08/12 10:44:27;;;;;;;8.52;1.98;;;;;;;19.50;52.25;100491.25;5068215;28;20051;-43
2021/08/12 10:47:54;;;;;;;6.32;1.35;;;;;;;19.58;52.06;100495.63;5072008;28;20056;-44
2021/08/12 10:50:41;;;;;;;9.02;1.45;;;;;;;19.57;52.08;100503.25;5071587;28;20117;-41
2021/08/12 10:53:28;;;;;;;16.05;2.10;;;;;;;19.60;52.15;100494.00;5066660;28;20059;-41
2021/08/12 10:55:58;;;;;;;7.30;1.40;;;;;;;19.64;52.00;100502.41;5071939;28;20820;-44
2021/08/12 10:58:29;;;;;;;7.57;1.50;;;;;;;19.64;52.01;100508.81;5075662;28;20136;-41
2021/08/12 11:01:01;;;;;;;10.27;2.20;;;;;;;19.61;52.12;100509.66;5075205;28;20043;-41
2021/08/12 11:03:44;;;;;;;7.88;1.52;;;;;;;19.49;52.38;100512.91;5075928;28;20412;-45
2021/08/12 11:06:14;;;;;;;12.02;1.60;;;;;;;19.38;52.50;100506.56;5076800;28;20060;-42
2021/08/12 11:08:50;;;;;;;5.30;1.38;;;;;;;19.21;52.56;100513.06;5075736;28;20044;-47
2021/08/12 11:11:22;;;;;;;11.65;3.22;;;;;;;19.12;52.89;100510.69;5075359;28;20051;-42
2021/08/12 11:13:52;;;;;;;3.58;1.55;;;;;;;18.98;53.23;100501.56;5073981;28;20044;-41
2021/08/12 11:16:20;;;;;;;9.65;2.80;;;;;;;18.93;53.45;100496.38;5076484;28;20056;-45
2021/08/12 11:18:53;;;;;;;5.22;1.50;;;;;;;18.88;54.08;100505.22;5076949;28;20051;-40
2021/08/12 11:21:38;;;;;;;12.80;2.17;;;;;;;18.79;54.04;100497.25;5079520;28;20482;-41
2021/08/12 11:24:17;;;;;;;6.25;1.42;;;;;;;18.72;55.09;100508.47;5077674;28;20527;-43
2021/08/12 11:26:44;;;;;;;10.50;2.00;;;;;;;18.76;54.91;100507.28;5073458;28;20044;-40
2021/08/12 11:29:25;;;;;;;11.63;2.88;;;;;;;18.83;55.20;100498.00;5077292;28;20163;-40
2021/08/12 11:31:54;;;;;;;5.55;1.45;;;;;;;18.94;55.31;100479.13;5075165;28;20052;-41
2021/08/12 11:34:36;;;;;;;7.65;1.75;;;;;;;19.02;55.06;100477.88;5076609;28;20052;-41
2021/08/12 11:37:10;;;;;;;9.13;1.75;;;;;;;19.16;54.95;100482.63;5073971;28;20044;-41
2021/08/12 11:39:46;;;;;;;9.98;1.38;;;;;;;19.31;54.68;100484.13;5076850;28;20055;-41
2021/08/12 11:42:27;;;;;;;7.97;1.52;;;;;;;19.62;54.79;100473.94;5077641;28;20063;-41
2021/08/12 11:44:57;;;;;;;7.50;1.58;;;;;;;19.80;54.73;100489.41;5075753;28;20059;-41
2021/08/12 11:47:26;;;;;;;9.60;1.58;;;;;;;19.75;53.97;100481.44;5073613;28;20795;-40
2021/08/12 11:49:56;;;;;;;5.22;1.50;;;;;;;19.63;53.72;100476.31;5074946;28;20056;-44
2021/08/12 11:52:34;;;;;;;8.18;2.90;;;;;;;19.48;53.95;100476.84;5073724;28;20051;-46
2021/08/12 11:55:10;;;;;;;4.70;1.70;;;;;;;19.37;54.30;100477.72;5075042;28;20389;-41
2021/08/12 11:57:41;;;;;;;9.50;2.33;;;;;;;19.22;54.29;100470.53;5074688;28;20091;-43
2021/08/12 12:00:10;;;;;;;9.80;1.90;;;;;;;19.12;54.41;100482.63;5077430;28;20118;-41
2021/08/12 12:03:00;;;;;;;6.32;1.90;;;;;;;19.05;54.49;100477.06;5074660;28;20042;-47
2021/08/12 12:05:35;;;;;;;6.22;1.70;;;;;;;19.05;54.46;100470.66;5073711;28;20086;-43
2021/08/12 12:08:08;;;;;;;4.72;1.55;;;;;;;19.12;54.61;100481.84;5072846;28;20094;-41
2021/08/12 12:10:40;;;;;;;10.88;2.17;;;;;;;19.16;54.80;100482.63;5065622;28;20044;-46
2021/08/12 12:13:16;;;;;;;6.28;1.25;;;;;;;19.21;54.83;100479.38;5066478;28;20036;-44
2021/08/12 12:15:49;;;;;;;4.72;1.65;;;;;;;19.28;54.75;100465.31;5074580;28;20060;-44
2021/08/12 12:18:43;;;;;;;11.95;2.90;;;;;;;19.32;54.71;100463.28;5072178;28;20504;-47
2021/08/12 12:21:16;;;;;;;9.77;2.38;;;;;;;19.38;54.79;100456.03;5072102;28;20067;-45
2021/08/12 12:23:45;;;;;;;5.55;1.33;;;;;;;19.53;54.97;100463.16;5073372;28;20044;-40
2021/08/12 12:26:24;;;;;;;12.45;2.10;;;;;;;19.60;54.98;100453.88;5073941;28;20393;-42
2021/08/12 12:28:51;;;;;;;6.25;2.05;;;;;;;19.66;55.26;100464.25;5074527;28;20107;-43
2021/08/12 12:31:20;;;;;;;9.95;2.60;;;;;;;19.63;54.95;100459.47;5074458;28;20377;-44
2021/08/12 12:33:58;;;;;;;7.60;2.10;;;;;;;19.55;54.85;100455.13;5055655;28;20036;-41
2021/08/12 12:36:25;;;;;;;12.25;2.13;;;;;;;19.47;55.08;100445.16;5073759;28;20043;-44
2021/08/12 12:38:52;;;;;;;13.32;3.88;;;;;;;19.47;55.33;100441.53;5074106;28;20036;-41
2021/08/12 12:41:22;;;;;;;6.28;1.80;;;;;;;19.51;55.19;100464.78;5074853;28;20068;-42
2021/08/12 12:43:49;;;;;;;8.73;2.42;;;;;;;19.52;55.09;100449.53;5075219;28;20052;-41
2021/08/12 12:46:31;;;;;;;10.85;1.73;;;;;;;19.72;55.56;100454.19;5074294;28;20126;-46
2021/08/12 12:49:10;;;;;;;7.25;2.08;;;;;;;19.89;55.29;100447.59;5076385;28;20051;-41
2021/08/12 12:51:37;;;;;;;7.40;2.10;;;;;;;20.04;54.69;100463.09;5075561;28;20050;-43